createdAt,value
2022-11-29T00:00:10.553Z,8.54
2022-11-29T00:01:10.521Z,8.52
2022-11-29T00:02:10.619Z,8.54
2022-11-29T00:03:10.900Z,8.52
2022-11-29T00:04:10.462Z,8.53
2022-11-29T00:05:10.462Z,8.53
2022-11-29T00:06:10.459Z,8.54
2022-11-29T00:07:10.469Z,8.52
2022-11-29T00:08:10.421Z,8.53
2022-11-29T00:09:10.436Z,8.52
2022-11-29T00:10:10.407Z,8.53
2022-11-29T00:11:10.400Z,8.56
2022-11-29T00:12:10.458Z,8.53
2022-11-29T00:13:10.395Z,8.56
2022-11-29T00:14:10.398Z,8.56
2022-11-29T00:15:10.329Z,8.54
2022-11-29T00:16:10.458Z,8.54
2022-11-29T00:17:10.318Z,8.54
2022-11-29T00:18:10.324Z,8.54
2022-11-29T00:19:10.286Z,8.53
2022-11-29T00:20:10.298Z,8.54
2022-11-29T00:21:10.270Z,8.52
2022-11-29T00:22:10.293Z,8.53
2022-11-29T00:23:10.254Z,8.53
2022-11-29T00:24:10.255Z,8.53
2022-11-29T00:25:10.242Z,8.54
2022-11-29T00:26:10.242Z,8.53
2022-11-29T00:27:10.259Z,8.52
2022-11-29T00:28:10.197Z,8.53
2022-11-29T00:29:10.186Z,8.53
2022-11-29T00:30:10.166Z,8.54
2022-11-29T00:31:10.179Z,8.53
2022-11-29T00:32:10.180Z,8.50
2022-11-29T00:33:10.138Z,8.53
2022-11-29T00:34:10.118Z,8.54
2022-11-29T00:35:10.270Z,8.50
2022-11-29T00:36:10.125Z,8.54
2022-11-29T00:37:10.157Z,8.54
2022-11-29T00:38:10.075Z,8.53
2022-11-29T00:39:10.067Z,8.54
2022-11-29T00:40:10.059Z,8.54
2022-11-29T00:41:10.056Z,8.53
2022-11-29T00:42:10.078Z,8.53
2022-11-29T00:43:10.071Z,8.54
2022-11-29T00:44:12.815Z,8.54
2022-11-29T00:45:11.037Z,8.53
2022-11-29T00:46:10.028Z,8.52
2022-11-29T00:47:10.053Z,8.53
2022-11-29T00:48:09.977Z,8.52
2022-11-29T00:49:09.990Z,8.52
2022-11-29T00:50:09.957Z,8.52
2022-11-29T00:51:09.939Z,8.49
2022-11-29T00:52:10.005Z,8.53
2022-11-29T00:53:09.927Z,8.52
2022-11-29T00:54:09.911Z,8.52
2022-11-29T00:55:09.894Z,8.49
2022-11-29T00:56:09.900Z,8.52
2022-11-29T00:57:09.908Z,8.49
2022-11-29T00:58:09.866Z,8.49
2022-11-29T00:59:09.854Z,8.45
2022-11-29T01:00:09.852Z,8.49
2022-11-29T01:01:09.883Z,8.50
2022-11-29T01:02:09.890Z,8.46
2022-11-29T01:03:09.827Z,8.49
2022-11-29T01:04:09.804Z,8.50
2022-11-29T01:05:09.784Z,8.46
2022-11-29T01:06:09.821Z,8.49
2022-11-29T01:07:09.777Z,8.45
2022-11-29T01:08:09.761Z,8.49
2022-11-29T01:09:09.769Z,8.50
2022-11-29T01:10:09.736Z,8.49
2022-11-29T01:11:09.726Z,8.45
2022-11-29T01:12:09.733Z,8.49
2022-11-29T01:13:09.769Z,8.46
2022-11-29T01:14:09.695Z,8.45
2022-11-29T01:15:09.676Z,8.46
2022-11-29T01:16:09.666Z,8.46
2022-11-29T01:17:09.687Z,8.49
2022-11-29T01:18:09.692Z,8.49
2022-11-29T01:19:09.647Z,8.49
2022-11-29T01:20:09.634Z,8.49
2022-11-29T01:21:09.615Z,8.50
2022-11-29T01:22:09.627Z,8.49
2022-11-29T01:23:09.607Z,8.50
2022-11-29T01:24:09.598Z,8.49
2022-11-29T01:25:09.585Z,8.50
2022-11-29T01:26:09.585Z,8.53
2022-11-29T01:27:09.607Z,8.50
2022-11-29T01:28:09.585Z,8.52
2022-11-29T01:29:09.542Z,8.49
2022-11-29T01:30:09.520Z,8.53
2022-11-29T01:31:09.566Z,8.50
2022-11-29T01:32:09.503Z,8.52
2022-11-29T01:33:09.506Z,8.52
2022-11-29T01:34:09.484Z,8.54
2022-11-29T01:35:09.489Z,8.52
2022-11-29T01:36:09.478Z,8.49
2022-11-29T01:37:09.444Z,8.52
2022-11-29T01:38:09.460Z,8.52
2022-11-29T01:39:09.436Z,8.52
2022-11-29T01:40:09.420Z,8.52
2022-11-29T01:41:09.407Z,8.50
2022-11-29T01:42:09.391Z,8.52
2022-11-29T01:43:09.394Z,8.50
2022-11-29T01:44:09.468Z,8.52
2022-11-29T01:45:09.354Z,8.52
2022-11-29T01:46:09.412Z,8.53
2022-11-29T01:47:09.341Z,8.54
2022-11-29T01:48:09.346Z,8.56
2022-11-29T01:49:09.334Z,8.53
2022-11-29T01:50:09.330Z,8.56
2022-11-29T01:51:09.292Z,8.53
2022-11-29T01:52:09.353Z,8.57
2022-11-29T01:53:09.376Z,8.56
2022-11-29T01:54:09.293Z,8.54
2022-11-29T01:55:09.438Z,8.54
2022-11-29T01:56:09.295Z,8.54
2022-11-29T01:57:09.244Z,8.54
2022-11-29T01:58:09.232Z,8.54
2022-11-29T01:59:09.246Z,8.54
2022-11-29T02:00:09.213Z,8.54
2022-11-29T02:01:09.284Z,8.54
2022-11-29T02:02:09.245Z,8.56
2022-11-29T02:03:09.210Z,8.56
2022-11-29T02:04:09.175Z,8.59
2022-11-29T02:05:09.146Z,8.57
2022-11-29T02:06:09.145Z,8.57
2022-11-29T02:07:09.251Z,8.53
2022-11-29T02:08:09.173Z,8.57
2022-11-29T02:09:09.094Z,8.56
2022-11-29T02:10:09.124Z,8.56
2022-11-29T02:11:09.137Z,8.57
2022-11-29T02:12:09.073Z,8.59
2022-11-29T02:13:09.067Z,8.56
2022-11-29T02:14:09.058Z,8.57
2022-11-29T02:15:09.074Z,8.57
2022-11-29T02:16:09.105Z,8.59
2022-11-29T02:17:09.013Z,8.57
2022-11-29T02:18:09.022Z,8.57
2022-11-29T02:19:08.986Z,8.56
2022-11-29T02:20:09.016Z,8.57
2022-11-29T02:21:08.984Z,8.57
2022-11-29T02:22:08.964Z,8.56
2022-11-29T02:23:08.977Z,8.56
2022-11-29T02:24:09.024Z,8.57
2022-11-29T02:25:08.923Z,8.56
2022-11-29T02:26:08.919Z,8.56
2022-11-29T02:27:08.914Z,8.57
2022-11-29T02:28:08.927Z,8.57
2022-11-29T02:29:08.905Z,8.57
2022-11-29T02:30:08.878Z,8.57
2022-11-29T02:31:08.935Z,8.54
2022-11-29T02:32:08.854Z,8.60
2022-11-29T02:33:08.861Z,8.57
2022-11-29T02:34:08.832Z,8.56
2022-11-29T02:35:08.813Z,8.56
2022-11-29T02:36:08.826Z,8.59
2022-11-29T02:37:11.641Z,8.56
2022-11-29T02:38:08.819Z,8.59
2022-11-29T02:39:08.812Z,8.56
2022-11-29T02:40:08.765Z,8.59
2022-11-29T02:41:08.754Z,8.57
2022-11-29T02:42:08.761Z,8.56
2022-11-29T02:43:08.758Z,8.59
2022-11-29T02:44:08.724Z,8.57
2022-11-29T02:45:08.721Z,8.57
2022-11-29T02:46:08.748Z,8.57
2022-11-29T02:47:08.694Z,8.59
2022-11-29T02:48:08.702Z,8.57
2022-11-29T02:49:08.691Z,8.59
2022-11-29T02:50:08.662Z,8.59
2022-11-29T02:51:08.660Z,8.57
2022-11-29T02:52:08.641Z,8.59
2022-11-29T02:53:08.630Z,8.59
2022-11-29T02:54:08.609Z,8.59
2022-11-29T02:55:08.600Z,8.60
2022-11-29T02:56:08.617Z,8.57
2022-11-29T02:57:08.579Z,8.59
2022-11-29T02:58:08.601Z,8.61
2022-11-29T02:59:08.580Z,8.60
2022-11-29T03:00:08.558Z,8.57
2022-11-29T03:01:08.586Z,8.59
2022-11-29T03:02:08.569Z,8.61
2022-11-29T03:03:08.571Z,8.60
2022-11-29T03:04:08.562Z,8.63
2022-11-29T03:05:08.493Z,8.61
2022-11-29T03:06:08.534Z,8.61
2022-11-29T03:07:08.469Z,8.59
2022-11-29T03:08:08.503Z,8.61
2022-11-29T03:09:08.448Z,8.60
2022-11-29T03:10:08.508Z,8.60
2022-11-29T03:11:08.422Z,8.60
2022-11-29T03:12:08.418Z,8.63
2022-11-29T03:13:08.423Z,8.61
2022-11-29T03:14:08.458Z,8.61
2022-11-29T03:15:08.378Z,8.61
2022-11-29T03:16:08.403Z,8.61
2022-11-29T03:17:08.362Z,8.63
2022-11-29T03:18:08.619Z,8.63
2022-11-29T03:19:08.348Z,8.64
2022-11-29T03:20:08.338Z,8.64
2022-11-29T03:21:08.332Z,8.61
2022-11-29T03:22:08.309Z,8.63
2022-11-29T03:23:08.299Z,8.64
2022-11-29T03:24:08.303Z,8.66
2022-11-29T03:25:08.278Z,8.64
2022-11-29T03:26:08.276Z,8.63
2022-11-29T03:27:08.309Z,8.60
2022-11-29T03:28:08.248Z,8.59
2022-11-29T03:29:08.249Z,8.61
2022-11-29T03:30:08.230Z,8.63
2022-11-29T03:31:08.271Z,8.63
2022-11-29T03:32:08.216Z,8.59
2022-11-29T03:33:08.204Z,8.61
2022-11-29T03:34:08.190Z,8.59
2022-11-29T03:35:08.192Z,8.57
2022-11-29T03:36:08.161Z,8.56
2022-11-29T03:37:08.155Z,8.56
2022-11-29T03:38:08.155Z,8.54
2022-11-29T03:39:08.148Z,8.56
2022-11-29T03:40:08.119Z,8.56
2022-11-29T03:41:08.116Z,8.54
2022-11-29T03:42:08.103Z,8.53
2022-11-29T03:43:08.133Z,8.54
2022-11-29T03:44:08.137Z,8.54
2022-11-29T03:45:08.092Z,8.53
2022-11-29T03:46:08.118Z,8.56
2022-11-29T03:47:08.036Z,8.54
2022-11-29T03:48:08.038Z,8.54
2022-11-29T03:49:08.046Z,8.56
2022-11-29T03:50:08.014Z,8.54
2022-11-29T03:51:07.999Z,8.57
2022-11-29T03:52:07.992Z,8.57
2022-11-29T03:53:07.975Z,8.56
2022-11-29T03:54:08.002Z,8.57
2022-11-29T03:55:07.966Z,8.59
2022-11-29T03:56:07.945Z,8.59
2022-11-29T03:57:07.961Z,8.54
2022-11-29T03:58:07.914Z,8.56
2022-11-29T03:59:07.916Z,8.57
2022-11-29T04:00:07.944Z,8.59
2022-11-29T04:01:07.957Z,8.57
2022-11-29T04:02:07.919Z,8.57
2022-11-29T04:03:07.873Z,8.56
2022-11-29T04:04:07.875Z,8.57
2022-11-29T04:05:07.845Z,8.57
2022-11-29T04:06:07.843Z,8.57
2022-11-29T04:07:07.835Z,8.59
2022-11-29T04:08:07.815Z,8.60
2022-11-29T04:09:07.813Z,8.57
2022-11-29T04:10:07.795Z,8.59
2022-11-29T04:11:07.784Z,8.59
2022-11-29T04:12:07.785Z,8.60
2022-11-29T04:13:07.773Z,8.61
2022-11-29T04:14:07.776Z,8.61
2022-11-29T04:15:10.522Z,8.60
2022-11-29T04:16:08.795Z,8.59
2022-11-29T04:17:07.761Z,8.60
2022-11-29T04:18:07.715Z,8.61
2022-11-29T04:19:07.703Z,8.59
2022-11-29T04:20:07.682Z,8.61
2022-11-29T04:21:07.673Z,8.60
2022-11-29T04:22:07.712Z,8.63
2022-11-29T04:23:07.683Z,8.57
2022-11-29T04:24:07.644Z,8.63
2022-11-29T04:25:07.655Z,8.63
2022-11-29T04:26:07.622Z,8.61
2022-11-29T04:27:07.601Z,8.59
2022-11-29T04:28:07.602Z,8.61
2022-11-29T04:29:07.593Z,8.60
2022-11-29T04:30:07.591Z,8.64
2022-11-29T04:31:07.602Z,8.61
2022-11-29T04:32:07.572Z,8.64
2022-11-29T04:33:07.562Z,8.63
2022-11-29T04:34:07.544Z,8.61
2022-11-29T04:35:07.542Z,8.63
2022-11-29T04:36:07.513Z,8.63
2022-11-29T04:37:07.510Z,8.63
2022-11-29T04:38:07.506Z,8.66
2022-11-29T04:39:07.482Z,8.66
2022-11-29T04:40:07.494Z,8.63
2022-11-29T04:41:07.460Z,8.64
2022-11-29T04:42:07.464Z,8.63
2022-11-29T04:43:07.441Z,8.64
2022-11-29T04:44:07.421Z,8.64
2022-11-29T04:45:07.428Z,8.63
2022-11-29T04:46:07.449Z,8.64
2022-11-29T04:47:07.410Z,8.64
2022-11-29T04:48:07.390Z,8.64
2022-11-29T04:49:07.382Z,8.63
2022-11-29T04:50:07.373Z,8.68
2022-11-29T04:51:07.354Z,8.64
2022-11-29T04:52:07.351Z,8.66
2022-11-29T04:53:07.338Z,8.66
2022-11-29T04:54:07.352Z,8.66
2022-11-29T04:55:07.318Z,8.64
2022-11-29T04:56:07.307Z,8.64
2022-11-29T04:57:07.288Z,8.64
2022-11-29T04:58:07.300Z,8.66
2022-11-29T04:59:07.282Z,8.64
2022-11-29T05:00:07.268Z,8.63
2022-11-29T05:01:07.256Z,8.63
2022-11-29T05:02:07.251Z,8.64
2022-11-29T05:03:07.305Z,8.63
2022-11-29T05:04:07.230Z,8.63
2022-11-29T05:05:07.271Z,8.61
2022-11-29T05:06:07.185Z,8.63
2022-11-29T05:07:07.203Z,8.63
2022-11-29T05:08:07.170Z,8.66
2022-11-29T05:09:07.178Z,8.63
2022-11-29T05:10:07.190Z,8.64
2022-11-29T05:11:07.137Z,8.63
2022-11-29T05:12:07.126Z,8.63
2022-11-29T05:13:07.118Z,8.63
2022-11-29T05:14:07.102Z,8.63
2022-11-29T05:15:07.111Z,8.63
2022-11-29T05:16:07.139Z,8.64
2022-11-29T05:17:07.088Z,8.61
2022-11-29T05:18:07.080Z,8.61
2022-11-29T05:19:07.057Z,8.64
2022-11-29T05:20:07.052Z,8.63
2022-11-29T05:21:07.027Z,8.63
2022-11-29T05:22:07.019Z,8.64
2022-11-29T05:23:07.010Z,8.63
2022-11-29T05:24:06.991Z,8.63
2022-11-29T05:25:07.047Z,8.64
2022-11-29T05:26:06.981Z,8.63
2022-11-29T05:27:06.967Z,8.63
2022-11-29T05:28:10.032Z,8.64
2022-11-29T05:29:06.938Z,8.61
2022-11-29T05:30:06.964Z,8.64
2022-11-29T05:31:07.204Z,8.61
2022-11-29T05:32:06.949Z,8.64
2022-11-29T05:33:06.887Z,8.61
2022-11-29T05:34:06.888Z,8.64
2022-11-29T05:35:06.877Z,8.60
2022-11-29T05:36:06.868Z,8.63
2022-11-29T05:37:06.885Z,8.61
2022-11-29T05:38:06.837Z,8.63
2022-11-29T05:39:06.837Z,8.63
2022-11-29T05:40:06.813Z,8.64
2022-11-29T05:41:06.834Z,8.64
2022-11-29T05:42:06.796Z,8.63
2022-11-29T05:43:06.793Z,8.63
2022-11-29T05:44:06.781Z,8.63
2022-11-29T05:45:06.766Z,8.60
2022-11-29T05:46:06.786Z,8.63
2022-11-29T05:47:06.752Z,8.61
2022-11-29T05:48:06.739Z,8.63
2022-11-29T05:49:06.715Z,8.60
2022-11-29T05:50:06.998Z,8.61
2022-11-29T05:51:06.707Z,8.60
2022-11-29T05:52:06.691Z,8.63
2022-11-29T05:53:06.688Z,8.60
2022-11-29T05:54:06.715Z,8.61
2022-11-29T05:55:06.665Z,8.61
2022-11-29T05:56:06.654Z,8.63
2022-11-29T05:57:06.636Z,8.63
2022-11-29T05:58:06.635Z,8.60
2022-11-29T05:59:06.625Z,8.60
2022-11-29T06:00:06.604Z,8.63
2022-11-29T06:01:06.605Z,8.63
2022-11-29T06:02:06.629Z,8.61
2022-11-29T06:03:06.646Z,8.60
2022-11-29T06:04:11.715Z,8.64
2022-11-29T06:05:07.547Z,8.63
2022-11-29T06:06:06.547Z,8.60
2022-11-29T06:07:06.537Z,8.61
2022-11-29T06:08:06.513Z,8.61
2022-11-29T06:09:06.516Z,8.63
2022-11-29T06:10:06.487Z,8.60
2022-11-29T06:11:06.511Z,8.61
2022-11-29T06:12:06.491Z,8.61
2022-11-29T06:13:06.482Z,8.61
2022-11-29T06:14:06.452Z,8.63
2022-11-29T06:15:06.433Z,8.63
2022-11-29T06:16:06.469Z,8.61
2022-11-29T06:17:06.561Z,8.63
2022-11-29T06:18:06.402Z,8.61
2022-11-29T06:19:06.399Z,8.60
2022-11-29T06:20:06.403Z,8.61
2022-11-29T06:21:06.425Z,8.63
2022-11-29T06:22:06.362Z,8.59
2022-11-29T06:23:06.342Z,8.60
2022-11-29T06:24:06.345Z,8.61
2022-11-29T06:25:06.328Z,8.60
2022-11-29T06:26:06.332Z,8.59
2022-11-29T06:27:06.312Z,8.60
2022-11-29T06:28:07.022Z,8.63
2022-11-29T06:29:06.310Z,8.61
2022-11-29T06:30:06.273Z,8.61
2022-11-29T06:31:06.354Z,8.60
2022-11-29T06:32:06.253Z,8.61
2022-11-29T06:33:06.304Z,8.59
2022-11-29T06:34:06.246Z,8.60
2022-11-29T06:35:06.225Z,8.61
2022-11-29T06:36:06.230Z,8.59
2022-11-29T06:37:06.203Z,8.59
2022-11-29T06:38:06.261Z,8.59
2022-11-29T06:39:06.193Z,8.59
2022-11-29T06:40:06.105Z,8.60
2022-11-29T06:41:06.141Z,8.60
2022-11-29T06:42:06.103Z,8.57
2022-11-29T06:43:06.100Z,8.56
2022-11-29T06:44:06.078Z,8.57
2022-11-29T06:45:06.064Z,8.57
2022-11-29T06:46:06.180Z,8.54
2022-11-29T06:47:06.043Z,8.57
2022-11-29T06:48:06.035Z,8.60
2022-11-29T06:49:06.110Z,8.59
2022-11-29T06:50:06.040Z,8.61
2022-11-29T06:51:06.004Z,8.56
2022-11-29T06:52:05.994Z,8.59
2022-11-29T06:53:05.991Z,8.56
2022-11-29T06:54:05.975Z,8.60
2022-11-29T06:55:05.970Z,8.57
2022-11-29T06:56:05.961Z,8.57
2022-11-29T06:57:05.940Z,8.59
2022-11-29T06:58:05.913Z,8.59
2022-11-29T06:59:05.918Z,8.59
2022-11-29T07:00:05.910Z,8.60
2022-11-29T07:01:05.946Z,8.57
2022-11-29T07:02:05.989Z,8.60
2022-11-29T07:03:05.912Z,8.56
2022-11-29T07:04:05.864Z,8.57
2022-11-29T07:05:05.886Z,8.59
2022-11-29T07:06:05.839Z,8.59
2022-11-29T07:07:05.849Z,8.57
2022-11-29T07:08:05.822Z,8.60
2022-11-29T07:09:05.807Z,8.59
2022-11-29T07:10:08.323Z,8.60
2022-11-29T07:11:06.783Z,8.60
2022-11-29T07:12:05.769Z,8.57
2022-11-29T07:13:05.799Z,8.59
2022-11-29T07:14:05.746Z,8.60
2022-11-29T07:15:05.750Z,8.59
2022-11-29T07:16:05.777Z,8.59
2022-11-29T07:17:05.851Z,8.57
2022-11-29T07:18:05.730Z,8.61
2022-11-29T07:19:05.700Z,8.59
2022-11-29T07:20:05.719Z,8.59
2022-11-29T07:21:05.682Z,8.60
2022-11-29T07:22:05.668Z,8.61
2022-11-29T07:23:05.730Z,8.60
2022-11-29T07:24:05.676Z,8.59
2022-11-29T07:25:05.639Z,8.61
2022-11-29T07:26:05.628Z,8.61
2022-11-29T07:27:05.656Z,8.63
2022-11-29T07:28:05.610Z,8.60
2022-11-29T07:29:05.619Z,8.60
2022-11-29T07:30:05.579Z,8.63
2022-11-29T07:31:05.620Z,8.63
2022-11-29T07:32:05.567Z,8.63
2022-11-29T07:33:05.580Z,8.64
2022-11-29T07:34:05.542Z,8.61
2022-11-29T07:35:05.520Z,8.61
2022-11-29T07:36:05.528Z,8.61
2022-11-29T07:37:05.548Z,8.64
2022-11-29T07:38:05.497Z,8.63
2022-11-29T07:39:05.481Z,8.64
2022-11-29T07:40:05.480Z,8.64
2022-11-29T07:41:05.469Z,8.66
2022-11-29T07:42:05.468Z,8.66
2022-11-29T07:43:05.458Z,8.66
2022-11-29T07:44:05.496Z,8.66
2022-11-29T07:45:05.417Z,8.68
2022-11-29T07:46:05.451Z,8.66
2022-11-29T07:47:05.479Z,8.69
2022-11-29T07:48:05.427Z,8.68
2022-11-29T07:49:05.389Z,8.69
2022-11-29T07:50:05.386Z,8.71
2022-11-29T07:51:05.372Z,8.68
2022-11-29T07:52:05.427Z,8.71
2022-11-29T07:53:05.348Z,8.71
2022-11-29T07:54:05.335Z,8.74
2022-11-29T07:55:05.318Z,8.74
2022-11-29T07:56:05.361Z,8.74
2022-11-29T07:57:05.312Z,8.75
2022-11-29T07:58:05.293Z,8.77
2022-11-29T07:59:05.438Z,8.72
2022-11-29T08:00:05.259Z,8.78
2022-11-29T08:01:05.288Z,8.77
2022-11-29T08:02:11.316Z,8.79
2022-11-29T08:03:06.227Z,8.79
2022-11-29T08:04:05.229Z,8.82
2022-11-29T08:05:05.200Z,8.82
2022-11-29T08:06:05.196Z,8.86
2022-11-29T08:07:05.197Z,8.84
2022-11-29T08:08:05.181Z,8.86
2022-11-29T08:09:05.170Z,8.87
2022-11-29T08:10:05.166Z,8.90
2022-11-29T08:11:05.468Z,8.92
2022-11-29T08:12:05.174Z,8.95
2022-11-29T08:13:05.116Z,8.96
2022-11-29T08:14:05.128Z,8.97
2022-11-29T08:15:05.261Z,8.99
2022-11-29T08:16:05.159Z,8.99
2022-11-29T08:17:05.105Z,9.00
2022-11-29T08:18:05.192Z,9.05
2022-11-29T08:19:05.070Z,9.03
2022-11-29T08:20:05.053Z,9.02
2022-11-29T08:21:05.079Z,9.05
2022-11-29T08:22:05.141Z,9.05
2022-11-29T08:23:05.036Z,9.08
2022-11-29T08:24:05.006Z,9.05
2022-11-29T08:25:05.057Z,9.09
2022-11-29T08:26:04.988Z,9.11
2022-11-29T08:27:04.986Z,9.09
2022-11-29T08:28:04.980Z,9.13
2022-11-29T08:29:06.268Z,9.16
2022-11-29T08:30:04.944Z,9.16
2022-11-29T08:31:04.936Z,9.18
2022-11-29T08:32:04.969Z,9.19
2022-11-29T08:33:05.007Z,9.22
2022-11-29T08:34:04.930Z,9.27
2022-11-29T08:35:04.878Z,9.24
2022-11-29T08:36:04.911Z,9.27
2022-11-29T08:37:04.857Z,9.26
2022-11-29T08:38:04.861Z,9.30
2022-11-29T08:39:09.213Z,9.30
2022-11-29T08:40:04.830Z,9.29
2022-11-29T08:41:04.816Z,9.30
2022-11-29T08:42:04.835Z,9.30
2022-11-29T08:43:04.818Z,9.31
2022-11-29T08:44:04.796Z,9.33
2022-11-29T08:45:04.848Z,9.36
2022-11-29T08:46:04.852Z,9.36
2022-11-29T08:47:04.776Z,9.40
2022-11-29T08:48:05.065Z,9.42
2022-11-29T08:49:04.749Z,9.47
2022-11-29T08:50:04.735Z,9.49
2022-11-29T08:51:04.739Z,9.52
2022-11-29T08:52:04.738Z,9.54
2022-11-29T08:53:04.748Z,9.51
2022-11-29T08:54:04.735Z,9.55
2022-11-29T08:55:04.755Z,9.54
2022-11-29T08:56:23.600Z,9.58
2022-11-29T08:57:37.937Z,9.63
2022-11-29T08:58:05.661Z,9.63
2022-11-29T08:59:04.644Z,9.64
2022-11-29T09:00:04.626Z,9.67
2022-11-29T09:01:04.653Z,9.66
2022-11-29T09:02:04.645Z,9.67
2022-11-29T09:03:04.603Z,9.67
2022-11-29T09:04:04.575Z,9.69
2022-11-29T09:05:04.597Z,9.66
2022-11-29T09:06:10.436Z,9.67
2022-11-29T09:07:05.602Z,9.67
2022-11-29T09:08:04.533Z,9.70
2022-11-29T09:09:04.521Z,9.69
2022-11-29T09:10:04.514Z,9.70
2022-11-29T09:11:04.533Z,9.69
2022-11-29T09:12:04.483Z,9.72
2022-11-29T09:13:04.502Z,9.70
2022-11-29T09:14:04.478Z,9.72
2022-11-29T09:15:04.467Z,9.73
2022-11-29T09:16:04.479Z,9.77
2022-11-29T09:17:04.462Z,9.82
2022-11-29T09:18:04.602Z,9.84
2022-11-29T09:19:04.413Z,9.90
2022-11-29T09:20:04.393Z,9.95
2022-11-29T09:21:04.382Z,9.97
2022-11-29T09:22:04.413Z,9.99
2022-11-29T09:23:04.428Z,10.00
2022-11-29T09:24:04.429Z,9.99
2022-11-29T09:25:04.332Z,9.99
2022-11-29T09:26:04.324Z,9.99
2022-11-29T09:27:04.332Z,10.03
2022-11-29T09:28:04.471Z,10.02
2022-11-29T09:29:04.320Z,10.02
2022-11-29T09:30:04.293Z,10.03
2022-11-29T09:31:04.324Z,10.02
2022-11-29T09:32:04.343Z,10.05
2022-11-29T09:33:04.272Z,10.03
2022-11-29T09:34:04.295Z,10.05
2022-11-29T09:35:04.220Z,10.03
2022-11-29T09:36:04.220Z,10.03
2022-11-29T09:37:04.204Z,10.00
2022-11-29T09:38:04.205Z,10.05
2022-11-29T09:39:04.328Z,10.03
2022-11-29T09:40:04.175Z,10.07
2022-11-29T09:41:04.160Z,10.07
2022-11-29T09:42:04.144Z,10.09
2022-11-29T09:43:04.135Z,10.10
2022-11-29T09:44:04.178Z,10.12
2022-11-29T09:45:04.119Z,10.12
2022-11-29T09:46:04.257Z,10.15
2022-11-29T09:47:04.095Z,10.12
2022-11-29T09:48:04.086Z,10.13
2022-11-29T09:49:04.070Z,10.12
2022-11-29T09:50:04.064Z,10.12
2022-11-29T09:51:04.042Z,10.09
2022-11-29T09:52:04.031Z,10.09
2022-11-29T09:53:04.019Z,10.07
2022-11-29T09:54:04.025Z,10.07
2022-11-29T09:55:04.000Z,10.07
2022-11-29T09:56:03.983Z,10.07
2022-11-29T09:57:10.162Z,10.07
2022-11-29T09:58:04.978Z,10.09
2022-11-29T09:59:03.999Z,10.09
2022-11-29T10:00:03.960Z,10.10
2022-11-29T10:01:04.005Z,10.10
2022-11-29T10:02:04.048Z,10.13
2022-11-29T10:03:03.961Z,10.09
2022-11-29T10:04:03.919Z,10.07
2022-11-29T10:05:03.901Z,10.09
2022-11-29T10:06:03.907Z,10.09
2022-11-29T10:07:03.877Z,10.06
2022-11-29T10:08:03.861Z,10.07
2022-11-29T10:09:03.841Z,10.12
2022-11-29T10:10:03.900Z,10.12
2022-11-29T10:11:03.819Z,10.12
2022-11-29T10:12:03.809Z,10.18
2022-11-29T10:13:03.808Z,10.18
2022-11-29T10:14:03.800Z,10.20
2022-11-29T10:15:03.768Z,10.21
2022-11-29T10:16:03.770Z,10.23
2022-11-29T10:17:03.789Z,10.24
2022-11-29T10:18:03.765Z,10.23
2022-11-29T10:19:03.737Z,10.24
2022-11-29T10:20:03.776Z,10.23
2022-11-29T10:21:03.707Z,10.23
2022-11-29T10:22:03.724Z,10.21
2022-11-29T10:23:03.705Z,10.18
2022-11-29T10:24:03.701Z,10.18
2022-11-29T10:25:03.719Z,10.17
2022-11-29T10:26:03.693Z,10.15
2022-11-29T10:27:03.639Z,10.13
2022-11-29T10:28:03.698Z,10.12
2022-11-29T10:29:03.642Z,10.13
2022-11-29T10:30:03.616Z,10.13
2022-11-29T10:31:03.689Z,10.12
2022-11-29T10:32:08.642Z,10.10
2022-11-29T10:33:04.579Z,10.10
2022-11-29T10:34:03.604Z,10.12
2022-11-29T10:35:03.558Z,10.13
2022-11-29T10:36:03.547Z,10.13
2022-11-29T10:37:03.527Z,10.13
2022-11-29T10:39:07.680Z,10.15
2022-11-29T10:40:04.673Z,10.17
2022-11-29T10:41:03.535Z,10.17
2022-11-29T10:42:03.490Z,10.18
2022-11-29T10:43:03.466Z,10.17
2022-11-29T10:44:03.500Z,10.15
2022-11-29T10:45:03.456Z,10.17
2022-11-29T10:46:03.469Z,10.13
2022-11-29T10:47:07.820Z,10.10
2022-11-29T10:48:04.425Z,10.12
2022-11-29T10:49:03.414Z,10.13
2022-11-29T10:50:03.405Z,10.12
2022-11-29T10:51:03.387Z,10.12
2022-11-29T10:52:03.470Z,10.13
2022-11-29T10:53:03.363Z,10.12
2022-11-29T10:54:03.417Z,10.18
2022-11-29T10:55:03.339Z,10.18
2022-11-29T10:56:03.325Z,10.21
2022-11-29T10:57:03.361Z,10.24
2022-11-29T10:58:03.359Z,10.28
2022-11-29T10:59:03.308Z,10.30
2022-11-29T11:00:03.316Z,10.34
2022-11-29T11:01:03.288Z,10.41
2022-11-29T11:02:03.703Z,10.46
2022-11-29T11:03:03.277Z,10.48
2022-11-29T11:04:03.277Z,10.55
2022-11-29T11:05:03.243Z,10.59
2022-11-29T11:06:03.240Z,10.64
2022-11-29T11:07:03.217Z,10.65
2022-11-29T11:08:03.194Z,10.68
2022-11-29T11:09:03.185Z,10.69
2022-11-29T11:10:03.173Z,10.76
2022-11-29T11:11:03.156Z,10.77
2022-11-29T11:12:03.162Z,10.82
2022-11-29T11:13:03.141Z,10.86
2022-11-29T11:14:03.778Z,10.92
2022-11-29T11:15:03.131Z,10.90
2022-11-29T11:16:03.112Z,10.92
2022-11-29T11:17:03.156Z,10.87
2022-11-29T11:18:03.089Z,10.87
2022-11-29T11:19:03.097Z,10.83
2022-11-29T11:20:03.085Z,10.84
2022-11-29T11:21:03.118Z,10.83
2022-11-29T11:22:03.039Z,10.82
2022-11-29T11:23:03.025Z,10.83
2022-11-29T11:24:03.017Z,10.82
2022-11-29T11:25:03.003Z,10.79
2022-11-29T11:26:03.010Z,10.80
2022-11-29T11:27:02.995Z,10.76
2022-11-29T11:28:02.993Z,10.76
2022-11-29T11:29:02.972Z,10.76
2022-11-29T11:30:02.965Z,10.79
2022-11-29T11:31:02.999Z,10.75
2022-11-29T11:32:02.985Z,10.76
2022-11-29T11:33:02.918Z,10.75
2022-11-29T11:34:02.903Z,10.69
2022-11-29T11:35:02.896Z,10.65
2022-11-29T11:36:02.907Z,10.64
2022-11-29T11:37:02.883Z,10.61
2022-11-29T11:38:02.885Z,10.65
2022-11-29T11:39:02.885Z,10.64
2022-11-29T11:40:03.005Z,10.64
2022-11-29T11:41:02.893Z,10.65
2022-11-29T11:42:02.834Z,10.64
2022-11-29T11:43:02.795Z,10.65
2022-11-29T11:44:07.153Z,10.64
2022-11-29T11:45:04.153Z,10.62
2022-11-29T11:46:02.890Z,10.57
2022-11-29T11:47:02.866Z,10.58
2022-11-29T11:48:02.744Z,10.59
2022-11-29T11:49:02.743Z,10.64
2022-11-29T11:50:02.789Z,10.65
2022-11-29T11:51:02.806Z,10.67
2022-11-29T11:52:02.714Z,10.68
2022-11-29T11:53:02.762Z,10.68
2022-11-29T11:54:02.741Z,10.69
2022-11-29T11:55:02.674Z,10.67
2022-11-29T11:56:02.723Z,10.67
2022-11-29T11:57:02.666Z,10.67
2022-11-29T11:58:09.438Z,10.64
2022-11-29T11:59:03.713Z,10.61
2022-11-29T12:00:06.916Z,10.64
2022-11-29T12:01:04.258Z,10.65
2022-11-29T12:02:02.763Z,10.67
2022-11-29T12:03:02.665Z,10.64
2022-11-29T12:04:02.624Z,10.64
2022-11-29T12:05:02.576Z,10.59
2022-11-29T12:06:02.550Z,10.58
2022-11-29T12:07:02.554Z,10.58
2022-11-29T12:08:09.805Z,10.58
2022-11-29T12:09:03.526Z,10.55
2022-11-29T12:10:02.595Z,10.58
2022-11-29T12:11:07.046Z,10.58
2022-11-29T12:12:03.484Z,10.57
2022-11-29T12:13:02.473Z,10.55
2022-11-29T12:14:02.489Z,10.53
2022-11-29T12:15:02.458Z,10.51
2022-11-29T12:16:02.483Z,10.48
2022-11-29T12:17:02.432Z,10.49
2022-11-29T12:18:02.443Z,10.53
2022-11-29T12:19:02.409Z,10.53
2022-11-29T12:20:02.395Z,10.57
2022-11-29T12:21:02.405Z,10.57
2022-11-29T12:22:02.449Z,10.59
2022-11-29T12:23:02.366Z,10.57
2022-11-29T12:24:02.382Z,10.59
2022-11-29T12:25:02.352Z,10.58
2022-11-29T12:26:02.357Z,10.61
2022-11-29T12:27:02.363Z,10.61
2022-11-29T12:28:02.306Z,10.62
2022-11-29T12:29:02.333Z,10.65
2022-11-29T12:30:02.352Z,10.69
2022-11-29T12:31:02.316Z,10.68
2022-11-29T12:32:02.276Z,10.69
2022-11-29T12:33:02.301Z,10.69
2022-11-29T12:34:02.274Z,10.75
2022-11-29T12:35:02.251Z,10.76
2022-11-29T12:36:02.224Z,10.77
2022-11-29T12:37:02.216Z,10.79
2022-11-29T12:38:02.235Z,10.80
2022-11-29T12:39:02.206Z,10.80
2022-11-29T12:40:02.178Z,10.83
2022-11-29T12:41:02.192Z,10.82
2022-11-29T12:42:02.157Z,10.83
2022-11-29T12:43:02.153Z,10.83
2022-11-29T12:44:02.137Z,10.80
2022-11-29T12:45:02.159Z,10.80
2022-11-29T12:46:02.217Z,10.84
2022-11-29T12:47:28.148Z,10.86
2022-11-29T12:48:03.142Z,10.86
2022-11-29T12:49:02.075Z,10.87
2022-11-29T12:50:02.068Z,10.89
2022-11-29T12:51:02.064Z,10.89
2022-11-29T12:52:02.069Z,10.90
2022-11-29T12:53:02.057Z,10.92
2022-11-29T12:54:02.013Z,10.94
2022-11-29T12:55:02.013Z,10.94
2022-11-29T12:56:02.024Z,10.98
2022-11-29T12:57:01.993Z,10.98
2022-11-29T12:58:02.011Z,11.02
2022-11-29T12:59:01.991Z,11.02
2022-11-29T13:00:01.957Z,11.02
2022-11-29T13:01:01.974Z,11.01
2022-11-29T13:02:02.032Z,11.04
2022-11-29T13:03:01.938Z,11.01
2022-11-29T13:04:01.943Z,11.01
2022-11-29T13:05:01.948Z,10.98
2022-11-29T13:06:01.896Z,10.94
2022-11-29T13:07:01.885Z,10.90
2022-11-29T13:08:01.920Z,10.89
2022-11-29T13:09:01.903Z,10.84
2022-11-29T13:10:01.848Z,10.83
2022-11-29T13:11:01.833Z,10.80